Latest Coastal Weather Observations for Jervis Bay Airfield

IDN60701

Issued at 4:02 am EST Thursday 30 May 2024 (issued every 10 minutes, with the page automatically refreshed every 10 minutes)

About coastal observations | Map of coastal stations | Coastal observations for NSW | Marine services | Other Formats
Station Details ID: 068264 Name: JERVIS BAY AIRFIELD AWS Lat: -35.14 Lon: 150.70 Height: 57.18 m
Data from the previous 72 hours. | See also: Recent months at Jervis Bay Airfield
Date/Time
EST
Wind Sea
Height
m
Swell Vis
km
Cloud Weather Temp
°C
Press
MSL
hPa
Rain since
9am
mm
Dir  Spd
kts
Gust
kts
Height
m
Period
s
Dir
30/04:00am NE 5 8 - - - - 10 Clear - 13.0 1024.4 0.0
30/03:30am NNE 6 7 - - - - 10 - - 13.6 1024.3 0.0
30/03:00am NE 5 7 - - - - 10 - - 12.6 1024.3 0.0
30/02:30am NNE 5 7 - - - - 10 - - 12.5 1024.2 0.0
30/02:00am NE 5 7 - - - - 10 - - 12.5 1024.4 0.0
30/01:30am ENE 4 8 - - - - 10 - - 12.8 1024.4 0.0
30/01:00am ENE 5 6 - - - - 10 - - 12.4 1024.4 0.0
30/12:30am NE 4 6 - - - - 10 - - 13.3 1024.7 0.0
30/12:00am N 4 6 - - - - 10 - - 12.4 1025.0 0.0
 
Date/Time
EST
Wind Sea
Height
m
Swell Vis
km
Cloud Weather Temp
°C
Press
MSL
hPa
Rain since
9am
mm
Dir  Spd
kts
Gust
kts
Height
m
Period
s
Dir
29/11:30pm ENE 4 5 - - - - 10 - - 12.3 1025.2 0.0
29/11:00pm ENE 5 7 - - - - 10 - - 13.1 1025.3 0.0
29/10:30pm NE 4 6 - - - - 10 - - 13.2 1025.5 0.0
29/10:17pm ENE 4 5 - - - - 10 - - 12.4 1025.5 0.0
29/10:00pm ENE 4 5 - - - - 1 - - 12.8 1025.7 0.0
29/09:30pm ENE 3 3 - - - - 5 - - 13.1 1025.7 0.0
29/09:02pm ENE 4 5 - - - - 7 - - 13.5 1025.5 0.0
29/09:00pm ENE 4 5 - - - - 9 - - 13.7 1025.5 0.0
29/08:30pm ENE 4 5 - - - - 10 - - 14.9 1025.4 0.0
29/08:00pm NE 4 5 - - - - 10 - - 15.2 1025.5 0.0
29/07:30pm NE 4 5 - - - - 10 - - 15.5 1025.4 0.0
29/07:00pm NE 5 7 - - - - 10 - - 15.7 1025.3 0.0
29/06:30pm NE 5 7 - - - - 10 - - 15.7 1025.2 0.0
29/06:00pm NNE 6 9 - - - - 10 - - 15.8 1025.2 0.0
29/05:30pm NE 4 5 - - - - 10 - - 15.9 1025.1 0.0
29/05:00pm NNE 6 7 - - - - 10 - - 16.9 1024.9 0.0
29/04:30pm NNE 7 9 - - - - 10 - - 18.0 1024.8 0.0
29/04:00pm NNE 7 10 - - - - 10 - - 18.8 1024.6 0.0
29/03:30pm NNE 9 12 - - - - 10 - - 19.2 1024.6 0.0
29/03:00pm NNE 11 14 - - - - 10 - - 19.8 1024.5 0.0
29/02:30pm NNE 11 15 - - - - 10 - - 20.1 1024.5 0.0
29/02:00pm NNE 9 12 - - - - 10 - - 20.4 1024.4 0.0
29/01:30pm NE 8 11 - - - - 10 - - 20.6 1024.7 0.0
29/01:00pm NNE 8 11 - - - - 10 - - 20.8 1025.1 0.0
29/12:30pm NNE 8 11 - - - - 10 - - 20.4 1025.4 0.0
29/12:00pm NE 9 12 - - - - 10 - - 20.0 1025.8 0.0
29/11:30am NNE 8 11 - - - - 10 - - 19.1 1026.2 0.0
29/11:00am N 8 11 - - - - 10 - - 18.6 1026.7 0.0
29/10:30am N 7 9 - - - - 10 - - 18.1 1027.3 0.0
29/10:00am N 7 11 - - - - 10 - - 17.5 1027.5 0.0
29/09:30am NNE 7 10 - - - - 10 - - 16.2 1027.5 0.0
29/09:00am N 7 10 - - - - 10 - - 14.6 1027.7 0.0
29/08:30am N 8 11 - - - - 10 - - 13.3 1027.6 0.0
29/08:00am N 6 9 - - - - 10 - - 12.0 1027.6 0.0
29/07:30am N 7 9 - - - - 10 - - 11.2 1027.5 0.0
29/07:00am NNW 6 9 - - - - 10 - - 10.4 1027.5 0.0
29/06:30am N 8 9 - - - - 10 - - 10.4 1027.2 0.0
29/06:00am NNE 6 7 - - - - 10 - - 8.5 1027.1 0.0
29/05:30am NNE 4 5 - - - - 10 - - 7.3 1027.1 0.0
29/05:00am NE 3 5 - - - - 10 - - 7.7 1027.2 0.0
29/04:30am ENE 3 5 - - - - 10 - - 8.3 1027.2 0.0
29/04:08am N 3 4 - - - - 10 - - 8.7 1027.3 0.0
29/04:00am N 4 5 - - - - 10 - - 8.3 1027.3 0.0
29/03:30am W 3 4 - - - - 0.7 - - 7.9 1027.2 0.0
29/03:00am CALM 0 0 - - - - 1 - - 8.0 1027.1 0.0
29/02:50am CALM 0 0 - - - - 4 - - 8.3 1027.3 0.0
29/02:30am CALM 0 0 - - - - 10 - - 7.8 1027.3 0.0
29/02:00am W 2 4 - - - - 10 - - 7.8 1027.4 0.0
29/01:47am W 4 5 - - - - 10 - - 9.0 1027.4 0.0
29/01:30am W 3 4 - - - - 0.6 - - 8.3 1027.3 0.0
29/01:10am W 3 3 - - - - 7 - - 9.0 1027.2 0.0
29/01:00am W 3 4 - - - - 10 - - 8.4 1027.3 0.0
29/12:57am W 3 4 - - - - 10 - - 8.5 1027.3 0.0
29/12:30am CALM 0 0 - - - - 0.2 - - 8.6 1027.6 0.0
29/12:00am CALM 0 2 - - - - 0.2 - Showers 8.7 1027.8 0.0
 
Date/Time
EST
Wind Sea
Height
m
Swell Vis
km
Cloud Weather Temp
°C
Press
MSL
hPa
Rain since
9am
mm
Dir  Spd
kts
Gust
kts
Height
m
Period
s
Dir
28/11:30pm W 3 4 - - - - 10 - - 8.9 1028.0 0.0
28/11:00pm W 2 4 - - - - 0.2 - - 9.6 1028.1 0.0
28/10:30pm W 3 3 - - - - 0.8 - - 9.0 1028.1 0.0
28/10:27pm W 3 3 - - - - 3 - - 9.3 1028.1 0.0
28/10:23pm W 2 3 - - - - 10 - - 9.3 1028.1 0.0
28/10:00pm CALM 0 0 - - - - 8 - - 8.8 1028.4 0.0
28/09:34pm CALM 0 0 - - - - 7 - - 9.3 1028.2 0.0
28/09:30pm CALM 0 0 - - - - 10 - - 9.3 1028.2 0.0
28/09:00pm CALM 0 0 - - - - 10 - - 9.4 1028.2 0.0
28/08:30pm W 1 4 - - - - 10 - - 9.8 1028.1 0.0
28/08:00pm W 3 4 - - - - 10 - - 10.9 1027.8 0.0
28/07:30pm W 3 4 - - - - 10 - - 11.4 1027.7 0.0
28/07:00pm W 4 5 - - - - 10 - - 11.8 1027.6 0.0
28/06:30pm W 3 5 - - - - 10 - - 12.1 1027.5 0.0
28/06:00pm WNW 5 6 - - - - 10 - - 12.5 1027.1 0.0
28/05:30pm WSW 3 4 - - - - 10 - - 13.2 1026.8 0.0
28/05:00pm CALM 0 0 - - - - 10 - - 14.8 1026.6 0.0
28/04:30pm SSE 3 5 - - - - 10 - - 16.9 1026.5 0.0
28/04:00pm SSE 5 7 - - - - 10 - - 17.6 1026.4 0.0
28/03:30pm SSE 5 7 - - - - 10 - - 18.0 1026.2 0.0
28/03:00pm S 6 8 - - - - 10 - - 18.4 1026.2 0.0
28/02:30pm SSE 6 7 - - - - 10 - - 18.8 1025.9 0.0
28/02:00pm NE 5 6 - - - - 10 - - 19.1 1025.9 0.0
28/01:30pm NE 4 6 - - - - 10 - - 18.8 1026.0 0.0
28/01:00pm NE 6 8 - - - - 10 - - 18.5 1026.1 0.0
28/12:30pm ENE 6 7 - - - - 10 - - 18.9 1026.3 0.0
28/12:00pm ENE 5 7 - - - - 10 - - 18.3 1026.4 0.0
28/11:30am NNE 2 6 - - - - 10 - - 18.3 1026.9 0.0
28/11:00am SSW 5 6 - - - - 10 - - 16.8 1027.4 0.0
28/10:30am SSW 5 7 - - - - 10 - - 16.2 1027.7 0.0
28/10:00am W 4 5 - - - - 10 - - 14.9 1027.9 0.0
28/09:30am WNW 5 6 - - - - 10 - - 13.1 1027.9 0.0
28/09:00am WNW 3 4 - - - - 10 - - 12.3 1027.5 0.2
28/08:30am WSW 4 6 - - - - 10 - - 10.9 1027.3 0.2
28/08:00am CALM 0 0 - - - - 10 - - 9.1 1027.0 0.2
28/07:30am CALM 0 0 - - - - 10 - - 6.7 1026.7 0.2
28/07:00am CALM 0 0 - - - - 10 - - 5.8 1026.4 0.2
28/06:30am CALM 0 0 - - - - 10 - - 5.5 1026.1 0.2
28/06:00am CALM 0 0 - - - - 10 - - 6.2 1026.1 0.2
28/05:30am N 3 5 - - - - 10 - - 6.1 1025.8 0.2
28/05:00am CALM 0 0 - - - - 10 - - 6.3 1025.6 0.2
28/04:30am CALM 0 0 - - - - 10 - - 7.1 1025.5 0.2
28/04:00am NW 3 5 - - - - 10 - - 6.9 1025.4 0.2
28/03:30am CALM 0 4 - - - - 10 - - 6.8 1025.5 0.2
28/03:00am CALM 0 0 - - - - 10 - - 6.9 1025.6 0.0
28/02:30am CALM 0 0 - - - - 10 - - 7.4 1025.6 0.0
28/02:00am NNW 3 4 - - - - 10 - - 8.2 1025.8 0.0
28/01:30am N 3 4 - - - - 10 - - 8.8 1025.8 0.0
28/01:00am NNE 5 6 - - - - 10 - - 9.7 1025.8 0.0
28/12:30am NNE 4 5 - - - - 10 - - 9.6 1025.8 0.0
28/12:00am NE 3 3 - - - - 10 - - 8.6 1026.1 0.0
 
Date/Time
EST
Wind Sea
Height
m
Swell Vis
km
Cloud Weather Temp
°C
Press
MSL
hPa
Rain since
9am
mm
Dir  Spd
kts
Gust
kts
Height
m
Period
s
Dir
27/11:30pm NE 2 3 - - - - 10 - - 9.5 1026.1 0.0
27/11:00pm NNE 3 5 - - - - 10 - - 9.2 1025.9 0.0
27/10:30pm W 2 4 - - - - 10 - - 9.5 1025.9 0.0
27/10:00pm W 4 5 - - - - 10 - - 11.2 1025.8 0.0
27/09:30pm W 5 5 - - - - 10 - - 10.6 1025.9 0.0
27/09:00pm W 5 6 - - - - 10 - - 11.0 1025.8 0.0
27/08:30pm W 4 6 - - - - 10 - - 10.9 1025.7 0.0
27/08:00pm W 4 4 - - - - 10 - - 11.7 1025.8 0.0
27/07:30pm W 6 6 - - - - 10 - - 12.0 1025.6 0.0
27/07:00pm WSW 3 5 - - - - 10 - - 10.5 1025.3 0.0
27/06:30pm CALM 0 0 - - - - 10 - - 11.0 1025.0 0.0
27/06:00pm S 3 3 - - - - 10 - - 11.9 1024.8 0.0
27/05:30pm S 3 4 - - - - 10 - - 12.7 1024.6 0.0
27/05:00pm S 4 6 - - - - 10 - - 14.4 1024.4 0.0
27/04:30pm SSW 5 6 - - - - 10 - - 16.2 1024.4 0.0
27/04:00pm SSW 6 7 - - - - 10 - - 16.8 1024.3 0.0
27/03:30pm SSW 8 10 - - - - 10 - - 17.0 1024.3 0.0
27/03:00pm SSW 10 13 - - - - 10 Mostly clear - 17.3 1024.2 0.0
27/02:30pm SSW 8 11 - - - - 10 Partly cloudy - 17.3 1024.2 0.0
27/02:00pm SSW 9 13 - - - - 10 Partly cloudy - 17.1 1024.2 0.0
27/01:30pm SSW 10 13 - - - - 10 Partly cloudy - 17.3 1024.0 0.0
27/01:00pm SSW 12 15 - - - - 10 Partly cloudy - 17.1 1024.1 0.0
27/12:30pm SSW 10 13 - - - - 10 - - 17.0 1024.3 0.0
27/12:00pm SW 8 11 - - - - 10 - - 16.6 1024.4 0.0
27/11:30am SW 8 12 - - - - 10 - - 16.7 1024.8 0.0
27/11:00am SW 8 11 - - - - 10 - - 17.0 1025.2 0.0
27/10:30am SW 8 11 - - - - 10 - - 16.0 1025.3 0.0
27/10:00am WSW 6 9 - - - - 10 - - 15.2 1025.4 0.0
27/09:30am SW 7 9 - - - - 10 - - 14.8 1025.4 0.0
27/09:00am W 5 7 - - - - 10 - - 13.1 1025.1 0.2
27/08:30am W 5 6 - - - - 10 - - 12.1 1024.6 0.2
27/08:00am W 6 8 - - - - 10 - - 11.1 1024.5 0.2
27/07:30am WSW 5 5 - - - - 10 - - 9.4 1024.4 0.2
27/07:00am W 4 5 - - - - 10 - - 8.1 1024.3 0.2
27/06:30am W 4 6 - - - - 10 - - 8.9 1023.9 0.2
27/06:00am W 6 7 - - - - 10 - - 9.4 1023.6 0.2
27/05:30am W 7 8 - - - - 10 - - 9.1 1023.3 0.2
27/05:00am W 5 5 - - - - 10 - - 8.0 1023.2 0.2
27/04:30am WSW 4 4 - - - - 10 - - 8.4 1023.4 0.2

Other formats

Comma delimited format used in spreadsheet applications
http://www.bom.gov.au/fwo/IDN60701/IDN60701.94751.axf

JavaScript Object Notation format (JSON) in row-major order
http://www.bom.gov.au/fwo/IDN60701/IDN60701.94751.json

Data quality

Most of these data are generated automatically and are frequently updated. Quality checks on data are not normally performed. It is possible for incorrect values to appear. Refer to information at About Latest Weather Observations and please check the disclaimer before using these data.